Time;durP1;ratioP1;P1;durP2;ratioP2;P2;SDS_P1;SDS_P2;PMS_P1;PMS_P2;Temp;Humidity;BMP_temperature;BMP_pressure;BME280_temperature;BME280_humidity;BME280_pressure;Samples;Min_cycle;Max_cycle;Signal;HPM_P1;HPM_P2
2022/12/02 00:01:15;;;;;;;;;;;;;;;;;;5086782;28;19988;-78
2022/12/02 00:03:54;;;;;;;;;;;;;;;;;;5091412;28;19925;-76
2022/12/02 00:11:49;;;;;;;;;;;;;;;;;;5030778;28;20023;-77
2022/12/02 00:14:19;;;;;;;;;;;;;;;;;;5035243;28;19933;-76
2022/12/02 00:16:46;;;;;;;;;;;;;;;;;;5034991;28;20029;-78
2022/12/02 00:19:12;;;;;;;;;;;;;;;;;;5034461;28;20384;-78
2022/12/02 00:21:40;;;;;;;;;;;;;;;;;;5034428;28;19925;-78
2022/12/02 00:24:06;;;;;;;;;;;;;;;;;;5034332;28;19929;-76
2022/12/02 00:26:33;;;;;;;;;;;;;;;;;;5034436;28;20028;-78
2022/12/02 00:28:59;;;;;;;;;;;;;;;;;;5033497;28;20016;-78
2022/12/02 00:31:26;;;;;;;;;;;;;;;;;;5034205;28;19941;-78
2022/12/02 00:33:53;;;;;;;;;;;;;;;;;;5034253;28;19981;-77
2022/12/02 00:36:19;;;;;;;;;;;;;;;;;;5033948;28;20019;-77
2022/12/02 00:38:47;;;;;;;;;;;;;;;;;;5033669;28;19925;-76
2022/12/02 00:41:14;;;;;;;;;;;;;;;;;;5033479;28;19935;-76
2022/12/02 00:46:33;;;;;;;;;;;;;;;;;;5034376;28;20003;-77
2022/12/02 00:49:00;;;;;;;;;;;;;;;;;;5033792;28;19979;-78
2022/12/02 00:51:27;;;;;;;;;;;;;;;;;;5034598;28;19925;-76
2022/12/02 00:53:55;;;;;;;;;;;;;;;;;;5033474;28;19997;-76
2022/12/02 00:56:21;;;;;;;;;;;;;;;;;;5033736;28;19975;-78
2022/12/02 00:58:48;;;;;;;;;;;;;;;;;;5033873;28;19932;-77
2022/12/02 01:01:14;;;;;;;;;;;;;;;;;;5033432;28;19925;-76
2022/12/02 01:03:41;;;;;;;;;;;;;;;;;;5033689;28;20391;-76
2022/12/02 01:06:07;;;;;;;;;;;;;;;;;;5034101;28;19931;-77
2022/12/02 01:08:34;;;;;;;;;;;;;;;;;;5033247;28;19925;-76
2022/12/02 01:11:01;;;;;;;;;;;;;;;;;;5033226;28;19947;-76
2022/12/02 01:13:28;;;;;;;;;;;;;;;;;;5032983;28;20012;-75
2022/12/02 01:15:55;;;;;;;;;;;;;;;;;;5032626;28;19925;-79
2022/12/02 01:18:21;;;;;;;;;;;;;;;;;;5033462;28;19925;-77
2022/12/02 01:20:48;;;;;;;;;;;;;;;;;;5037822;28;19975;-78
2022/12/02 01:23:14;;;;;;;;;;;;;;;;;;5033142;28;19951;-78
2022/12/02 01:25:41;;;;;;;;;;;;;;;;;;5032463;28;19925;-76
2022/12/02 01:28:09;;;;;;;;;;;;;;;;;;5032479;28;19925;-77
2022/12/02 01:30:35;;;;;;;;;;;;;;;;;;5032508;28;19929;-78
2022/12/02 01:33:01;;;;;;;;;;;;;;;;;;5033524;28;20389;-76
2022/12/02 01:35:28;;;;;;;;;;;;;;;;;;5036460;28;19971;-78
2022/12/02 01:37:54;;;;;;;;;;;;;;;;;;5035929;28;19964;-77
2022/12/02 01:40:21;;;;;;;;;;;;;;;;;;5036600;28;19933;-77
2022/12/02 01:42:48;;;;;;;;;;;;;;;;;;5033585;28;19968;-76
2022/12/02 01:45:16;;;;;;;;;;;;;;;;;;5032294;28;19948;-76
2022/12/02 01:47:43;;;;;;;;;;;;;;;;;;5032285;28;20012;-77
2022/12/02 01:50:10;;;;;;;;;;;;;;;;;;5032469;28;19925;-78
2022/12/02 01:52:37;;;;;;;;;;;;;;;;;;5032518;28;20426;-78
2022/12/02 01:55:04;;;;;;;;;;;;;;;;;;5032341;28;20439;-76
2022/12/02 01:57:31;;;;;;;;;;;;;;;;;;5032680;28;20000;-75
2022/12/02 01:59:57;;;;;;;;;;;;;;;;;;5038008;28;19925;-75
2022/12/02 02:02:26;;;;;;;;;;;;;;;;;;5035948;28;20108;-75
2022/12/02 02:04:53;;;;;;;;;;;;;;;;;;5039174;28;19931;-74
2022/12/02 02:07:20;;;;;;;;;;;;;;;;;;5036641;28;19940;-77
2022/12/02 02:09:47;;;;;;;;;;;;;;;;;;5036151;28;19925;-78
2022/12/02 02:12:13;;;;;;;;;;;;;;;;;;5036274;28;20435;-78
2022/12/02 02:14:39;;;;;;;;;;;;;;;;;;5036435;28;19929;-77
2022/12/02 02:17:06;;;;;;;;;;;;;;;;;;5035638;28;19971;-77
2022/12/02 02:19:34;;;;;;;;;;;;;;;;;;5036374;28;19925;-76
2022/12/02 02:22:02;;;;;;;;;;;;;;;;;;5036227;28;19929;-78
2022/12/02 02:24:29;;;;;;;;;;;;;;;;;;5036416;28;19925;-76
2022/12/02 02:26:56;;;;;;;;;;;;;;;;;;5035566;28;19939;-76
2022/12/02 02:29:22;;;;;;;;;;;;;;;;;;5036155;28;19925;-77
2022/12/02 02:31:49;;;;;;;;;;;;;;;;;;5036587;28;19932;-78
2022/12/02 02:34:15;;;;;;;;;;;;;;;;;;5036971;28;20008;-78
2022/12/02 02:36:42;;;;;;;;;;;;;;;;;;5036715;28;19925;-78
2022/12/02 02:39:08;;;;;;;;;;;;;;;;;;5034783;28;20347;-78
2022/12/02 02:41:36;;;;;;;;;;;;;;;;;;5036199;28;20356;-77
2022/12/02 02:44:02;;;;;;;;;;;;;;;;;;5036394;28;19931;-77
2022/12/02 02:46:29;;;;;;;;;;;;;;;;;;5036571;28;19925;-78
2022/12/02 02:48:55;;;;;;;;;;;;;;;;;;5035779;28;20020;-77
2022/12/02 02:51:22;;;;;;;;;;;;;;;;;;5036014;28;20003;-75
2022/12/02 02:53:48;;;;;;;;;;;;;;;;;;5035790;28;19932;-77
2022/12/02 02:56:15;;;;;;;;;;;;;;;;;;5035736;28;19929;-76
2022/12/02 02:58:42;;;;;;;;;;;;;;;;;;5035279;28;19979;-75
2022/12/02 03:01:10;;;;;;;;;;;;;;;;;;5035499;28;19932;-77
2022/12/02 03:03:41;;;;;;;;;;;;;;;;;;5031433;28;19969;-77
2022/12/02 03:06:09;;;;;;;;;;;;;;;;;;5015450;28;19926;-77
2022/12/02 03:08:36;;;;;;;;;;;;;;;;;;5020432;28;19976;-78
2022/12/02 03:11:03;;;;;;;;;;;;;;;;;;5034834;28;19925;-77
2022/12/02 03:13:30;;;;;;;;;;;;;;;;;;5035667;28;19931;-78
2022/12/02 03:15:58;;;;;;;;;;;;;;;;;;5033999;28;19931;-76
2022/12/02 03:18:24;;;;;;;;;;;;;;;;;;5034774;28;19929;-77
2022/12/02 03:20:51;;;;;;;;;;;;;;;;;;5034446;28;19925;-77
2022/12/02 03:23:17;;;;;;;;;;;;;;;;;;5035247;28;19976;-78
2022/12/02 03:25:44;;;;;;;;;;;;;;;;;;5035075;28;20008;-77
2022/12/02 03:28:11;;;;;;;;;;;;;;;;;;5034788;28;19925;-77
2022/12/02 03:30:37;;;;;;;;;;;;;;;;;;5034486;28;19952;-77
2022/12/02 03:33:05;;;;;;;;;;;;;;;;;;5034977;28;19983;-78
2022/12/02 03:35:32;;;;;;;;;;;;;;;;;;5034780;28;19955;-77
2022/12/02 03:37:58;;;;;;;;;;;;;;;;;;5034186;28;19929;-77
2022/12/02 03:40:25;;;;;;;;;;;;;;;;;;5034356;28;19925;-77
2022/12/02 03:42:51;;;;;;;;;;;;;;;;;;5036456;28;20011;-77
2022/12/02 03:45:18;;;;;;;;;;;;;;;;;;5035240;28;19935;-78
2022/12/02 03:47:45;;;;;;;;;;;;;;;;;;5034956;28;20011;-78
2022/12/02 03:50:13;;;;;;;;;;;;;;;;;;5036242;28;19925;-78
2022/12/02 03:52:39;;;;;;;;;;;;;;;;;;5034836;28;19929;-78
2022/12/02 03:55:07;;;;;;;;;;;;;;;;;;5035004;28;20302;-77
2022/12/02 03:57:33;;;;;;;;;;;;;;;;;;5034124;28;19925;-77
2022/12/02 04:00:00;;;;;;;;;;;;;;;;;;5035368;28;19947;-77
2022/12/02 04:02:27;;;;;;;;;;;;;;;;;;5034168;28;19929;-77
2022/12/02 04:04:54;;;;;;;;;;;;;;;;;;5035315;28;20011;-77
2022/12/02 04:07:21;;;;;;;;;;;;;;;;;;5035693;28;19924;-77
2022/12/02 04:09:48;;;;;;;;;;;;;;;;;;5035218;28;19964;-76
2022/12/02 04:12:14;;;;;;;;;;;;;;;;;;5034843;28;19925;-76
2022/12/02 04:14:41;;;;;;;;;;;;;;;;;;5034609;28;20306;-76
2022/12/02 04:17:07;;;;;;;;;;;;;;;;;;5034001;28;19936;-76
2022/12/02 04:19:33;;;;;;;;;;;;;;;;;;5034103;28;19925;-76
2022/12/02 04:22:00;;;;;;;;;;;;;;;;;;5033682;28;20446;-77
2022/12/02 04:24:28;;;;;;;;;;;;;;;;;;5033976;28;19929;-76
2022/12/02 04:26:54;;;;;;;;;;;;;;;;;;5033689;28;19925;-76
2022/12/02 04:29:21;;;;;;;;;;;;;;;;;;5034266;28;20016;-77
2022/12/02 04:31:47;;;;;;;;;;;;;;;;;;5034449;28;19933;-76
2022/12/02 04:34:13;;;;;;;;;;;;;;;;;;5034517;28;20003;-77
2022/12/02 04:36:40;;;;;;;;;;;;;;;;;;5035258;28;20508;-77
2022/12/02 04:39:06;;;;;;;;;;;;;;;;;;5034533;28;19925;-76
2022/12/02 04:41:34;;;;;;;;;;;;;;;;;;5034678;28;20007;-77
2022/12/02 04:44:01;;;;;;;;;;;;;;;;;;5034391;28;19994;-77
2022/12/02 04:46:27;;;;;;;;;;;;;;;;;;5034328;28;20378;-77
2022/12/02 04:48:53;;;;;;;;;;;;;;;;;;5034174;28;19932;-77
2022/12/02 04:51:20;;;;;;;;;;;;;;;;;;5034415;28;19925;-76
2022/12/02 04:53:46;;;;;;;;;;;;;;;;;;5034276;28;20303;-76
2022/12/02 04:56:12;;;;;;;;;;;;;;;;;;5034768;28;19925;-76
2022/12/02 04:58:40;;;;;;;;;;;;;;;;;;5034459;28;19925;-78
2022/12/02 05:01:07;;;;;;;;;;;;;;;;;;5034433;28;19925;-77
2022/12/02 05:03:33;;;;;;;;;;;;;;;;;;5031354;28;20373;-77
2022/12/02 05:05:59;;;;;;;;;;;;;;;;;;5027682;28;19925;-76
2022/12/02 05:08:26;;;;;;;;;;;;;;;;;;5037594;28;20432;-76
2022/12/02 05:10:52;;;;;;;;;;;;;;;;;;5040602;28;19933;-74
2022/12/02 05:13:18;;;;;;;;;;;;;;;;;;5040348;28;19925;-74
2022/12/02 05:15:46;;;;;;;;;;;;;;;;;;5042060;28;19931;-75
2022/12/02 05:18:13;;;;;;;;;;;;;;;;;;5037905;28;19988;-74
2022/12/02 05:20:39;;;;;;;;;;;;;;;;;;5036892;28;19979;-75
2022/12/02 05:23:05;;;;;;;;;;;;;;;;;;5036461;28;20265;-76
2022/12/02 05:25:32;;;;;;;;;;;;;;;;;;5039004;28;19931;-77
2022/12/02 05:27:58;;;;;;;;;;;;;;;;;;5034309;28;19935;-75
2022/12/02 05:30:25;;;;;;;;;;;;;;;;;;5033326;28;19925;-76
2022/12/02 05:32:52;;;;;;;;;;;;;;;;;;5033081;28;19925;-76
2022/12/02 05:35:19;;;;;;;;;;;;;;;;;;5033022;28;19979;-76
2022/12/02 05:37:45;;;;;;;;;;;;;;;;;;5032896;28;20015;-75
2022/12/02 05:40:12;;;;;;;;;;;;;;;;;;5032459;28;19925;-75
2022/12/02 05:42:39;;;;;;;;;;;;;;;;;;5033067;28;19929;-75
2022/12/02 05:45:10;;;;;;;;;;;;;;;;;;5033424;28;19967;-75
2022/12/02 05:47:36;;;;;;;;;;;;;;;;;;5033022;28;19925;-75
2022/12/02 05:50:07;;;;;;;;;;;;;;;;;;5033643;28;19925;-76
2022/12/02 05:52:34;;;;;;;;;;;;;;;;;;5032984;28;19972;-76
2022/12/02 05:55:02;;;;;;;;;;;;;;;;;;5033702;28;19931;-77
2022/12/02 05:57:30;;;;;;;;;;;;;;;;;;5032899;28;19926;-77
2022/12/02 06:00:01;;;;;;;;;;;;;;;;;;5033263;28;20020;-77
2022/12/02 06:02:31;;;;;;;;;;;;;;;;;;5031385;28;20800;-77
2022/12/02 06:04:57;;;;;;;;;;;;;;;;;;5017727;28;19987;-76
2022/12/02 06:07:25;;;;;;;;;;;;;;;;;;5028473;28;19925;-76
2022/12/02 06:09:52;;;;;;;;;;;;;;;;;;5032973;28;19925;-77
2022/12/02 06:12:20;;;;;;;;;;;;;;;;;;5035465;28;19976;-77
2022/12/02 06:14:47;;;;;;;;;;;;;;;;;;5056385;22;19913;-77
2022/12/02 06:17:15;;;;;;;;;;;;;;;;;;5031594;28;19926;-78
2022/12/02 06:19:44;;;;;;;;;;;;;;;;;;5023030;28;20387;-78
2022/12/02 06:22:12;;;;;;;;;;;;;;;;;;5035833;28;19944;-78
2022/12/02 06:24:40;;;;;;;;;;;;;;;;;;5030180;28;19993;-78
2022/12/02 06:27:11;;;;;;;;;;;;;;;;;;5022128;28;19948;-78
2022/12/02 06:29:39;;;;;;;;;;;;;;;;;;5028194;28;20003;-78
2022/12/02 06:32:06;;;;;;;;;;;;;;;;;;5008548;28;20435;-78
2022/12/02 06:34:34;;;;;;;;;;;;;;;;;;5007482;28;19933;-78
2022/12/02 06:37:02;;;;;;;;;;;;;;;;;;5020873;28;19926;-77
2022/12/02 06:39:28;;;;;;;;;;;;;;;;;;5012805;28;19925;-78
2022/12/02 06:41:56;;;;;;;;;;;;;;;;;;5020193;28;19926;-78
2022/12/02 06:47:27;;;;;;;;;;;;;;;;;;5012832;28;19932;-78
2022/12/02 06:49:53;;;;;;;;;;;;;;;;;;5018770;28;19929;-78
2022/12/02 06:52:21;;;;;;;;;;;;;;;;;;5025179;28;20028;-79
2022/12/02 06:54:47;;;;;;;;;;;;;;;;;;5025463;28;20394;-78
2022/12/02 06:57:16;;;;;;;;;;;;;;;;;;5025432;28;19929;-79
2022/12/02 06:59:45;;;;;;;;;;;;;;;;;;5025105;28;19965;-78
2022/12/02 07:02:16;;;;;;;;;;;;;;;;;;5027433;28;19981;-79
2022/12/02 07:04:44;;;;;;;;;;;;;;;;;;5016253;28;19933;-79
2022/12/02 07:07:16;;;;;;;;;;;;;;;;;;5009554;28;19926;-78
2022/12/02 07:09:45;;;;;;;;;;;;;;;;;;5010093;28;20373;-78
2022/12/02 07:12:12;;;;;;;;;;;;;;;;;;5010125;28;19926;-78
2022/12/02 07:14:43;;;;;;;;;;;;;;;;;;5010128;28;19981;-79
2022/12/02 07:17:14;;;;;;;;;;;;;;;;;;5009054;28;19973;-78
2022/12/02 07:19:43;;;;;;;;;;;;;;;;;;5010627;28;19954;-78
2022/12/02 07:22:14;;;;;;;;;;;;;;;;;;5010731;28;19926;-78
2022/12/02 07:24:41;;;;;;;;;;;;;;;;;;5009288;28;19976;-78
2022/12/02 07:27:14;;;;;;;;;;;;;;;;;;5006855;28;20373;-80
2022/12/02 07:29:41;;;;;;;;;;;;;;;;;;4999735;28;20008;-79
2022/12/02 07:32:08;;;;;;;;;;;;;;;;;;5000157;28;20031;-83
2022/12/02 07:34:34;;;;;;;;;;;;;;;;;;5003194;28;20022;-80
2022/12/02 07:37:01;;;;;;;;;;;;;;;;;;5002631;28;19957;-81
2022/12/02 07:39:27;;;;;;;;;;;;;;;;;;5004048;28;19926;-82
2022/12/02 07:41:54;;;;;;;;;;;;;;;;;;5003282;28;20005;-82
2022/12/02 07:44:20;;;;;;;;;;;;;;;;;;5000395;28;19932;-81
2022/12/02 07:46:48;;;;;;;;;;;;;;;;;;5005839;28;20008;-79
2022/12/02 07:49:15;;;;;;;;;;;;;;;;;;5009403;28;19973;-79
2022/12/02 08:21:59;;;;;;;;;;;;;;;;;;5417111;23;19925;-76
2022/12/02 08:24:30;;;;;;;;;;;;;;;;;;5014049;28;20387;-77
2022/12/02 08:27:20;;;;;;;;;;;;;;;;;;5017797;28;19925;-78
2022/12/02 08:29:49;;;;;;;;;;;;;;;;;;5015731;28;19932;-79
2022/12/02 08:32:15;;;;;;;;;;;;;;;;;;5011483;28;19948;-76
2022/12/02 08:34:42;;;;;;;;;;;;;;;;;;5012837;28;19980;-78
2022/12/02 08:37:10;;;;;;;;;;;;;;;;;;5017363;28;19953;-78
2022/12/02 08:39:36;;;;;;;;;;;;;;;;;;5017960;28;19989;-78
2022/12/02 08:42:03;;;;;;;;;;;;;;;;;;5015563;28;19933;-78
2022/12/02 08:44:30;;;;;;;;;;;;;;;;;;4998835;28;19957;-76
2022/12/02 08:46:59;;;;;;;;;;;;;;;;;;5004870;28;19996;-78
2022/12/02 08:49:26;;;;;;;;;;;;;;;;;;5018147;28;19926;-78
2022/12/02 08:51:53;;;;;;;;;;;;;;;;;;5018141;28;20388;-76
2022/12/02 08:54:21;;;;;;;;;;;;;;;;;;5018664;28;19949;-78
2022/12/02 08:56:48;;;;;;;;;;;;;;;;;;5018342;28;19926;-77
2022/12/02 08:59:15;;;;;;;;;;;;;;;;;;5016204;28;20000;-76
2022/12/02 09:01:41;;;;;;;;;;;;;;;;;;5009481;28;19977;-77
2022/12/02 09:04:07;;;;;;;;;;;;;;;;;;5017070;28;19930;-76
2022/12/02 09:06:37;;;;;;;;;;;;;;;;;;5010555;28;19949;-77
2022/12/02 09:09:04;;;;;;;;;;;;;;;;;;5013283;28;20362;-77
2022/12/02 09:11:33;;;;;;;;;;;;;;;;;;5012000;28;19932;-76
2022/12/02 09:13:59;;;;;;;;;;;;;;;;;;5026496;28;19957;-74
2022/12/02 09:16:27;;;;;;;;;;;;;;;;;;5032153;28;19929;-75
2022/12/02 09:18:54;;;;;;;;;;;;;;;;;;5022580;28;19925;-75
2022/12/02 09:21:21;;;;;;;;;;;;;;;;;;5020334;28;19925;-76
2022/12/02 09:23:47;;;;;;;;;;;;;;;;;;5020967;28;19968;-75
2022/12/02 09:26:14;;;;;;;;;;;;;;;;;;5022416;28;19961;-75
2022/12/02 09:28:41;;;;;;;;;;;;;;;;;;5024185;28;19996;-75
2022/12/02 09:31:08;;;;;;;;;;;;;;;;;;5023329;28;19961;-76
2022/12/02 09:33:34;;;;;;;;;;;;;;;;;;5022296;28;19981;-77
2022/12/02 09:36:01;;;;;;;;;;;;;;;;;;5021410;28;19929;-76
2022/12/02 09:38:30;;;;;;;;;;;;;;;;;;5024057;28;19972;-76
2022/12/02 09:40:56;;;;;;;;;;;;;;;;;;5025684;28;19929;-76
2022/12/02 09:43:23;;;;;;;;;;;;;;;;;;5026491;28;20387;-76
2022/12/02 09:45:50;;;;;;;;;;;;;;;;;;5023379;28;20004;-75
2022/12/02 09:48:17;;;;;;;;;;;;;;;;;;5025915;28;19936;-75
2022/12/02 09:50:43;;;;;;;;;;;;;;;;;;5024204;28;19996;-74
2022/12/02 09:53:12;;;;;;;;;;;;;;;;;;5024866;28;19980;-75
2022/12/02 09:55:38;;;;;;;;;;;;;;;;;;5026513;28;19926;-75
2022/12/02 09:58:12;;;;;;;;;;;;;;;;;;5028311;28;19951;-76
2022/12/02 10:00:38;;;;;;;;;;;;;;;;;;5025778;28;19925;-76
2022/12/02 10:03:06;;;;;;;;;;;;;;;;;;5027668;28;19957;-75
2022/12/02 10:05:33;;;;;;;;;;;;;;;;;;5023271;28;19956;-76
2022/12/02 10:08:00;;;;;;;;;;;;;;;;;;5007097;28;19969;-76
2022/12/02 10:10:27;;;;;;;;;;;;;;;;;;5009040;28;20016;-76
2022/12/02 10:12:54;;;;;;;;;;;;;;;;;;5027576;28;19968;-76
2022/12/02 10:15:22;;;;;;;;;;;;;;;;;;5019130;28;19957;-76
2022/12/02 10:17:49;;;;;;;;;;;;;;;;;;5025035;28;19989;-76
2022/12/02 10:20:18;;;;;;;;;;;;;;;;;;5026534;28;19993;-75
2022/12/02 10:22:59;;;;;;;;;;;;;;;;;;5028934;28;19926;-76
2022/12/02 10:25:29;;;;;;;;;;;;;;;;;;5030052;28;19925;-76
2022/12/02 10:27:56;;;;;;;;;;;;;;;;;;5031630;28;20277;-76
2022/12/02 10:30:24;;;;;;;;;;;;;;;;;;5030769;28;19930;-77
2022/12/02 10:32:58;;;;;;;;;;;;;;;;;;5033303;28;19925;-76
2022/12/02 10:35:26;;;;;;;;;;;;;;;;;;5030750;28;19976;-76
2022/12/02 10:37:52;;;;;;;;;;;;;;;;;;5032686;28;19982;-76
2022/12/02 10:40:20;;;;;;;;;;;;;;;;;;5032045;28;19925;-76
2022/12/02 10:42:48;;;;;;;;;;;;;;;;;;5020509;28;19932;-77
2022/12/02 10:45:17;;;;;;;;;;;;;;;;;;5026763;28;19994;-76
2022/12/02 10:47:43;;;;;;;;;;;;;;;;;;5034837;28;19922;-75
2022/12/02 10:50:15;;;;;;;;;;;;;;;;;;5030553;28;20435;-75
2022/12/02 10:52:45;;;;;;;;;;;;;;;;;;5029729;28;19926;-77
2022/12/02 10:55:12;;;;;;;;;;;;;;;;;;5031283;28;19937;-78
2022/12/02 10:57:39;;;;;;;;;;;;;;;;;;5029756;28;19925;-77
2022/12/02 11:00:12;;;;;;;;;;;;;;;;;;5030481;28;19936;-76
2022/12/02 11:02:44;;;;;;;;;;;;;;;;;;5027498;28;19925;-78
2022/12/02 11:05:14;;;;;;;;;;;;;;;;;;5026793;28;19925;-75
2022/12/02 11:07:40;;;;;;;;;;;;;;;;;;5024511;28;19929;-78
2022/12/02 11:10:18;;;;;;;;;;;;;;;;;;5030290;28;19941;-77
2022/12/02 11:12:58;;;;;;;;;;;;;;;;;;5017644;28;19937;-76
2022/12/02 11:15:49;;;;;;;;;;;;;;;;;;5019170;28;19930;-75
2022/12/02 11:18:30;;;;;;;;;;;;;;;;;;5026426;28;20348;-76
2022/12/02 11:21:16;;;;;;;;;;;;;;;;;;5024186;28;19973;-76
2022/12/02 11:23:43;;;;;;;;;;;;;;;;;;5025375;28;20441;-77
2022/12/02 11:26:11;;;;;;;;;;;;;;;;;;5020414;28;20028;-75
2022/12/02 11:28:46;;;;;;;;;;;;;;;;;;5002674;28;20368;-74
2022/12/02 11:31:17;;;;;;;;;;;;;;;;;;5030529;23;20792;-78
2022/12/02 11:34:05;;;;;;;;;;;;;;;;;;5052992;28;20011;-77
2022/12/02 11:36:32;;;;;;;;;;;;;;;;;;5027112;28;20015;-77
2022/12/02 11:39:01;;;;;;;;;;;;;;;;;;5054153;28;19993;-77
2022/12/02 11:41:29;;;;;;;;;;;;;;;;;;5054088;28;19932;-77
2022/12/02 11:44:17;;;;;;;;;;;;;;;;;;5053646;28;19983;-78
2022/12/02 11:46:45;;;;;;;;;;;;;;;;;;5037290;28;19960;-78
2022/12/02 11:49:23;;;;;;;;;;;;;;;;;;5050224;28;19932;-80
2022/12/02 11:51:49;;;;;;;;;;;;;;;;;;5049902;28;20039;-86
2022/12/02 11:54:17;;;;;;;;;;;;;;;;;;5054088;28;19995;-83
2022/12/02 11:56:46;;;;;;;;;;;;;;;;;;5058071;28;19929;-81
2022/12/02 11:59:20;;;;;;;;;;;;;;;;;;5048839;28;19972;-78
2022/12/02 12:01:47;;;;;;;;;;;;;;;;;;5046771;28;19931;-79
2022/12/02 12:04:24;;;;;;;;;;;;;;;;;;5050395;28;19925;-78
2022/12/02 12:06:55;;;;;;;;;;;;;;;;;;5048623;28;20145;-78
2022/12/02 12:09:21;;;;;;;;;;;;;;;;;;5053301;28;19936;-78
2022/12/02 12:12:03;;;;;;;;;;;;;;;;;;5054786;28;20350;-79
2022/12/02 12:14:30;;;;;;;;;;;;;;;;;;5051111;28;19936;-79
2022/12/02 12:17:12;;;;;;;;;;;;;;;;;;5052621;28;20015;-79
2022/12/02 12:19:39;;;;;;;;;;;;;;;;;;5050782;28;19928;-78
2022/12/02 12:22:23;;;;;;;;;;;;;;;;;;5049284;28;19956;-78
2022/12/02 12:24:50;;;;;;;;;;;;;;;;;;5049141;28;20011;-80
2022/12/02 12:27:31;;;;;;;;;;;;;;;;;;5036997;28;19964;-77
2022/12/02 12:29:59;;;;;;;;;;;;;;;;;;5048039;28;19924;-79
2022/12/02 12:32:25;;;;;;;;;;;;;;;;;;5047469;28;19964;-79
2022/12/02 12:34:52;;;;;;;;;;;;;;;;;;5054453;28;19960;-79
2022/12/02 12:37:18;;;;;;;;;;;;;;;;;;5061049;28;20283;-79
2022/12/02 12:39:45;;;;;;;;;;;;;;;;;;5041937;28;20351;-78
2022/12/02 12:42:12;;;;;;;;;;;;;;;;;;5041369;28;19934;-79
2022/12/02 12:44:38;;;;;;;;;;;;;;;;;;5049266;28;19996;-79
2022/12/02 12:47:06;;;;;;;;;;;;;;;;;;5056131;28;20653;-79
2022/12/02 12:49:33;;;;;;;;;;;;;;;;;;5046735;28;19925;-79
2022/12/02 12:52:00;;;;;;;;;;;;;;;;;;5049037;28;19931;-79
2022/12/02 12:54:26;;;;;;;;;;;;;;;;;;5037208;28;20031;-78
2022/12/02 12:56:53;;;;;;;;;;;;;;;;;;5053722;28;19931;-78
2022/12/02 12:59:19;;;;;;;;;;;;;;;;;;5053980;28;19948;-78
2022/12/02 13:01:46;;;;;;;;;;;;;;;;;;5050125;28;19925;-77
2022/12/02 13:04:14;;;;;;;;;;;;;;;;;;5044430;28;21601;-78
2022/12/02 13:06:41;;;;;;;;;;;;;;;;;;5035096;28;20546;-78
2022/12/02 13:09:08;;;;;;;;;;;;;;;;;;5053936;28;19954;-79
2022/12/02 13:11:34;;;;;;;;;;;;;;;;;;5048331;28;20408;-79
2022/12/02 13:14:02;;;;;;;;;;;;;;;;;;5036809;28;20794;-78
2022/12/02 13:16:29;;;;;;;;;;;;;;;;;;5051600;28;20019;-78
2022/12/02 13:18:55;;;;;;;;;;;;;;;;;;5046198;28;19971;-78
2022/12/02 13:21:23;;;;;;;;;;;;;;;;;;5033682;28;19925;-78
2022/12/02 13:23:50;;;;;;;;;;;;;;;;;;5032653;28;19931;-78
2022/12/02 13:26:16;;;;;;;;;;;;;;;;;;5035267;28;19926;-79
2022/12/02 13:28:43;;;;;;;;;;;;;;;;;;5063034;28;19955;-79
2022/12/02 13:31:09;;;;;;;;;;;;;;;;;;5068763;28;19925;-78
2022/12/02 13:33:36;;;;;;;;;;;;;;;;;;5050917;28;19929;-80
2022/12/02 13:36:02;;;;;;;;;;;;;;;;;;5058127;28;19976;-78
2022/12/02 13:38:30;;;;;;;;;;;;;;;;;;5038098;28;20020;-78
2022/12/02 13:40:57;;;;;;;;;;;;;;;;;;5047950;28;19972;-78
2022/12/02 13:43:23;;;;;;;;;;;;;;;;;;5036454;28;19993;-78
2022/12/02 13:45:50;;;;;;;;;;;;;;;;;;5040880;28;20015;-78
2022/12/02 13:48:17;;;;;;;;;;;;;;;;;;5049177;28;19951;-78
2022/12/02 13:50:43;;;;;;;;;;;;;;;;;;5047920;28;20391;-80
2022/12/02 13:53:10;;;;;;;;;;;;;;;;;;5052462;28;19931;-79
2022/12/02 13:55:37;;;;;;;;;;;;;;;;;;5039744;28;20020;-78
2022/12/02 13:58:04;;;;;;;;;;;;;;;;;;5044258;28;19964;-77
2022/12/02 14:00:30;;;;;;;;;;;;;;;;;;5040244;28;19964;-79
2022/12/02 14:02:57;;;;;;;;;;;;;;;;;;5034478;28;20169;-78
2022/12/02 14:05:23;;;;;;;;;;;;;;;;;;5038406;28;19932;-79
2022/12/02 14:07:50;;;;;;;;;;;;;;;;;;5043436;28;19983;-80
2022/12/02 14:10:16;;;;;;;;;;;;;;;;;;5043928;28;19925;-81
2022/12/02 14:12:44;;;;;;;;;;;;;;;;;;5035178;28;20007;-77
2022/12/02 14:15:11;;;;;;;;;;;;;;;;;;5033957;28;20017;-78
2022/12/02 14:17:37;;;;;;;;;;;;;;;;;;5046595;28;20017;-78
2022/12/02 14:20:04;;;;;;;;;;;;;;;;;;5053368;28;20551;-78
2022/12/02 14:22:30;;;;;;;;;;;;;;;;;;5053999;28;19924;-78
2022/12/02 14:24:57;;;;;;;;;;;;;;;;;;5049026;28;19955;-79
2022/12/02 14:27:24;;;;;;;;;;;;;;;;;;5033473;28;19948;-78
2022/12/02 14:29:51;;;;;;;;;;;;;;;;;;5033571;28;19972;-77
2022/12/02 14:32:18;;;;;;;;;;;;;;;;;;5032248;28;20016;-78
2022/12/02 14:34:44;;;;;;;;;;;;;;;;;;5033378;28;20016;-78
2022/12/02 14:37:11;;;;;;;;;;;;;;;;;;5033211;28;19975;-78
2022/12/02 14:39:37;;;;;;;;;;;;;;;;;;5034328;28;19988;-78
2022/12/02 14:42:04;;;;;;;;;;;;;;;;;;5052928;28;19954;-78
2022/12/02 14:44:30;;;;;;;;;;;;;;;;;;5053677;28;20020;-77
2022/12/02 14:46:58;;;;;;;;;;;;;;;;;;5052362;28;19924;-78
2022/12/02 14:49:24;;;;;;;;;;;;;;;;;;5041138;28;19960;-79
2022/12/02 14:51:51;;;;;;;;;;;;;;;;;;5033669;28;19988;-78
2022/12/02 14:54:17;;;;;;;;;;;;;;;;;;5044202;28;19931;-78
2022/12/02 14:56:46;;;;;;;;;;;;;;;;;;5053373;28;20349;-78
2022/12/02 14:59:16;;;;;;;;;;;;;;;;;;5053514;28;20430;-79
2022/12/02 15:01:42;;;;;;;;;;;;;;;;;;5034876;28;19925;-84
2022/12/02 15:04:12;;;;;;;;;;;;;;;;;;5043949;28;19925;-83
2022/12/02 15:06:39;;;;;;;;;;;;;;;;;;5057915;28;20410;-78
2022/12/02 15:09:05;;;;;;;;;;;;;;;;;;5045686;28;20016;-79
2022/12/02 15:11:31;;;;;;;;;;;;;;;;;;5040189;28;20007;-79
2022/12/02 15:13:58;;;;;;;;;;;;;;;;;;5038718;28;19969;-79
2022/12/02 15:16:24;;;;;;;;;;;;;;;;;;5037073;28;20300;-79
2022/12/02 15:18:51;;;;;;;;;;;;;;;;;;5054251;28;19980;-79
2022/12/02 15:21:18;;;;;;;;;;;;;;;;;;5056578;28;19925;-79
2022/12/02 15:23:45;;;;;;;;;;;;;;;;;;5056105;28;19983;-79
2022/12/02 15:26:11;;;;;;;;;;;;;;;;;;5056198;28;20024;-79
2022/12/02 15:28:38;;;;;;;;;;;;;;;;;;5040934;28;19940;-78
2022/12/02 15:31:04;;;;;;;;;;;;;;;;;;5036728;28;20015;-78
2022/12/02 15:33:31;;;;;;;;;;;;;;;;;;5037174;28;20023;-78
2022/12/02 15:35:57;;;;;;;;;;;;;;;;;;5037451;28;20288;-78
2022/12/02 15:38:25;;;;;;;;;;;;;;;;;;5050078;28;20030;-79
2022/12/02 15:40:52;;;;;;;;;;;;;;;;;;5054485;28;20407;-78
2022/12/02 15:43:19;;;;;;;;;;;;;;;;;;5035932;28;19929;-78
2022/12/02 15:45:45;;;;;;;;;;;;;;;;;;5048348;28;20358;-79
2022/12/02 15:48:12;;;;;;;;;;;;;;;;;;5037737;28;20021;-80
2022/12/02 15:50:38;;;;;;;;;;;;;;;;;;5036609;28;19968;-78
2022/12/02 15:53:05;;;;;;;;;;;;;;;;;;5050611;28;19925;-78
2022/12/02 15:55:33;;;;;;;;;;;;;;;;;;5057062;28;19931;-78
2022/12/02 15:57:59;;;;;;;;;;;;;;;;;;5058659;28;20012;-79
2022/12/02 16:00:25;;;;;;;;;;;;;;;;;;5062274;28;20027;-79
2022/12/02 16:02:52;;;;;;;;;;;;;;;;;;5046859;28;19925;-84
2022/12/02 16:05:20;;;;;;;;;;;;;;;;;;5042521;28;19976;-82
2022/12/02 16:07:49;;;;;;;;;;;;;;;;;;5055651;28;19978;-81
2022/12/02 16:10:16;;;;;;;;;;;;;;;;;;5059131;28;19970;-83
2022/12/02 16:12:44;;;;;;;;;;;;;;;;;;5048162;28;19972;-81
2022/12/02 16:15:10;;;;;;;;;;;;;;;;;;5038991;28;20000;-82
2022/12/02 16:17:37;;;;;;;;;;;;;;;;;;5051555;28;19931;-84
2022/12/02 16:20:06;;;;;;;;;;;;;;;;;;5065272;28;19925;-81
2022/12/02 16:22:34;;;;;;;;;;;;;;;;;;5059924;28;19964;-80
2022/12/02 16:25:00;;;;;;;;;;;;;;;;;;5046098;28;19932;-81
2022/12/02 16:27:27;;;;;;;;;;;;;;;;;;5049577;28;19933;-84
2022/12/02 16:29:55;;;;;;;;;;;;;;;;;;5062692;28;19975;-81
2022/12/02 16:32:21;;;;;;;;;;;;;;;;;;5049685;28;19987;-81
2022/12/02 16:34:48;;;;;;;;;;;;;;;;;;5041953;28;20348;-80
2022/12/02 16:37:16;;;;;;;;;;;;;;;;;;5051976;28;19947;-81
2022/12/02 16:39:42;;;;;;;;;;;;;;;;;;5059179;28;19925;-82
2022/12/02 16:42:09;;;;;;;;;;;;;;;;;;5058618;28;20004;-82
2022/12/02 16:44:35;;;;;;;;;;;;;;;;;;5052562;28;19933;-82
2022/12/02 16:47:03;;;;;;;;;;;;;;;;;;5037874;28;19929;-82
2022/12/02 16:49:29;;;;;;;;;;;;;;;;;;5037551;28;20337;-82
2022/12/02 16:51:57;;;;;;;;;;;;;;;;;;5037447;28;19965;-82
2022/12/02 16:54:23;;;;;;;;;;;;;;;;;;5044034;28;19925;-82
2022/12/02 16:56:50;;;;;;;;;;;;;;;;;;5042165;28;20572;-83
2022/12/02 16:59:16;;;;;;;;;;;;;;;;;;5048611;28;19948;-83
2022/12/02 17:01:43;;;;;;;;;;;;;;;;;;5056314;28;20015;-82
2022/12/02 17:04:11;;;;;;;;;;;;;;;;;;5048016;28;20560;-83
2022/12/02 17:06:37;;;;;;;;;;;;;;;;;;5038801;28;19926;-83
2022/12/02 17:09:04;;;;;;;;;;;;;;;;;;5039325;28;20028;-82
2022/12/02 17:11:30;;;;;;;;;;;;;;;;;;5049187;28;19979;-82
2022/12/02 17:13:57;;;;;;;;;;;;;;;;;;5055469;28;19924;-82
2022/12/02 17:16:23;;;;;;;;;;;;;;;;;;5049102;28;19980;-82
2022/12/02 17:18:50;;;;;;;;;;;;;;;;;;5051195;28;19940;-81
2022/12/02 17:21:17;;;;;;;;;;;;;;;;;;5058443;28;19924;-82
2022/12/02 17:23:44;;;;;;;;;;;;;;;;;;5050946;28;20027;-82
2022/12/02 17:26:10;;;;;;;;;;;;;;;;;;5039129;28;20004;-82
2022/12/02 17:28:37;;;;;;;;;;;;;;;;;;5052881;28;19972;-82
2022/12/02 17:31:03;;;;;;;;;;;;;;;;;;5054367;28;19975;-83